Weather History for KMQS - January, 2014

Change the Weather History Date:

Sunday, January 12, 2014

  Actual Average Record
Temperature  
Mean Temperature 39 °F -  
Max Temperature 46 °F - - ()
Min Temperature 32 °F - - ()
Degree Days  
Heating Degree Days 26    
Moisture  
Dew Point 33 °F    
Average Humidity 78    
Maximum Humidity 100    
Minimum Humidity 66    
Precipitation  
Precipitation 0.00 in - - ()
Sea Level Pressure  
Sea Level Pressure 29.86 in    
Wind  
Wind Speed 13 mph (WNW)    
Max Wind Speed 20 mph    
Max Gust Speed 28 mph    
Visibility 10 miles    
Events      
T = Trace of Precipitation, MM = Missing Value Source: NWS Daily Summary

Daily Weather History Graph

Daily Weather History Graph

Search for Another Location

Airport or City:

Trip Planner

Search our weather history database for the weather conditions in past years. The results will help you decide how hot, cold, wet, or windy it might be!

Date:

Astronomy

Jan. 12, 2014 Rise Set
Actual Time 7:24 AM EST 4:59 PM EST
Civil Twilight 6:54 AM EST 5:29 PM EST
Nautical Twilight 6:20 AM EST 6:02 PM EST
Astronomical Twilight 5:48 AM EST 6:35 PM EST
Moon 2:25 PM EST (1/12) 4:21 AM EST (1/12)
Length of Visible Light 10h 34m
Length of Day
9h 35m
Waxing Gibbous, 89% of the Moon is Illuminated
Jan 12
Waxing Gibbous
Jan 15
Full
Jan 24
Last Quarter
Jan 30
New
Feb 6
First Quarter

Hourly Weather History & Observations

Time (EST) Temp. Windchill Dew Point Humidity Pressure Visibility Wind Dir Wind Speed Gust Speed Precip Events Conditions
12:15 AM 46.4 °F 39.8 °F 46.4 °F 100% 29.50 in 10.0 mi WNW 16.1 mph 23.0 mph N/A   Clear
12:35 AM 46.4 °F 40.7 °F 46.4 °F 100% 29.51 in 10.0 mi WNW 12.7 mph - N/A   Partly Cloudy
12:55 AM 46.4 °F 39.8 °F 46.4 °F 100% 29.52 in 10.0 mi WNW 16.1 mph - N/A   Scattered Clouds
1:15 AM 46.4 °F 41.1 °F 44.6 °F 93% 29.53 in 10.0 mi WNW 11.5 mph - N/A   Clear
1:35 AM 46.4 °F 40.7 °F 44.6 °F 93% 29.55 in 10.0 mi WNW 12.7 mph - N/A   Mostly Cloudy
1:55 AM 44.6 °F 37.2 °F 42.8 °F 93% 29.56 in 10.0 mi WNW 17.3 mph - N/A   Mostly Cloudy
2:15 AM 44.6 °F 37.8 °F 39.2 °F 81% 29.58 in 10.0 mi WNW 15.0 mph - N/A   Mostly Cloudy
2:35 AM 42.8 °F 35.1 °F 35.6 °F 76% 29.60 in 10.0 mi WNW 16.1 mph 21.9 mph N/A   Mostly Cloudy
2:55 AM 42.8 °F 35.4 °F 33.8 °F 70% 29.61 in 10.0 mi WNW 15.0 mph 20.7 mph N/A   Scattered Clouds
3:15 AM 41.0 °F 33.5 °F 33.8 °F 76% 29.61 in 10.0 mi WNW 13.8 mph 17.3 mph N/A   Mostly Cloudy
3:35 AM 41.0 °F 33.9 °F 33.8 °F 76% 29.61 in 10.0 mi WNW 12.7 mph - N/A   Overcast
3:55 AM 41.0 °F 33.5 °F 33.8 °F 76% 29.61 in 10.0 mi WNW 13.8 mph 19.6 mph N/A   Overcast
4:15 AM 39.2 °F 31.2 °F 33.8 °F 81% 29.62 in 10.0 mi NW 13.8 mph - N/A   Scattered Clouds
4:35 AM 39.2 °F 30.5 °F 33.8 °F 81% 29.63 in 10.0 mi NW 16.1 mph - N/A   Clear
4:55 AM 39.2 °F 32.0 °F 32.0 °F 75% 29.64 in 10.0 mi NW 11.5 mph - N/A   Clear
5:15 AM 39.2 °F 30.2 °F 32.0 °F 75% 29.64 in 10.0 mi NW 17.3 mph 24.2 mph N/A   Clear
5:35 AM 39.2 °F 29.8 °F 30.2 °F 70% 29.65 in 10.0 mi NW 18.4 mph 26.5 mph N/A   Clear
5:55 AM 39.2 °F 30.8 °F 30.2 °F 70% 29.67 in 10.0 mi NW 15.0 mph 24.2 mph N/A   Clear
6:15 AM 37.4 °F 27.5 °F 30.2 °F 75% 29.69 in 10.0 mi NW 18.4 mph 24.2 mph N/A   Partly Cloudy
6:35 AM 37.4 °F 27.2 °F 30.2 °F 75% 29.70 in 10.0 mi NW 19.6 mph 27.6 mph N/A   Scattered Clouds
6:55 AM 39.2 °F 30.8 °F 30.2 °F 70% 29.71 in 10.0 mi NW 15.0 mph - N/A   Mostly Cloudy
7:15 AM 39.2 °F 32.0 °F 30.2 °F 70% 29.73 in 10.0 mi WNW 11.5 mph - N/A   Overcast
7:35 AM 39.2 °F 31.2 °F 32.0 °F 75% 29.75 in 10.0 mi NW 13.8 mph 19.6 mph N/A   Overcast
7:55 AM 37.4 °F 29.3 °F 32.0 °F 81% 29.77 in 10.0 mi WNW 12.7 mph - N/A   Overcast
8:15 AM 39.2 °F 29.8 °F 32.0 °F 75% 29.78 in 10.0 mi WNW 18.4 mph 21.9 mph N/A   Overcast
8:35 AM 39.2 °F 30.5 °F 32.0 °F 75% 29.80 in 10.0 mi NW 16.1 mph 20.7 mph N/A   Overcast
8:55 AM 39.2 °F 30.8 °F 32.0 °F 75% 29.83 in 10.0 mi WNW 15.0 mph 19.6 mph N/A   Overcast
9:15 AM 39.2 °F 29.8 °F 32.0 °F 75% 29.84 in 10.0 mi WNW 18.4 mph 21.9 mph N/A   Overcast
9:35 AM 39.2 °F 30.5 °F 32.0 °F 75% 29.85 in 10.0 mi WNW 16.1 mph - N/A   Overcast
9:55 AM 39.2 °F 32.0 °F 32.0 °F 75% 29.87 in 10.0 mi WNW 11.5 mph 21.9 mph N/A   Overcast
10:15 AM 39.2 °F 31.6 °F 32.0 °F 75% 29.89 in 10.0 mi WNW 12.7 mph - N/A   Overcast
10:35 AM 39.2 °F 31.6 °F 32.0 °F 75% 29.88 in 10.0 mi West 12.7 mph - N/A   Overcast
10:55 AM 39.2 °F 31.6 °F 32.0 °F 75% 29.89 in 10.0 mi WNW 12.7 mph 18.4 mph N/A   Overcast
11:15 AM 39.2 °F 31.2 °F 32.0 °F 75% 29.89 in 10.0 mi WNW 13.8 mph 18.4 mph N/A   Overcast
11:35 AM 39.2 °F 32.5 °F 32.0 °F 75% 29.89 in 10.0 mi WNW 10.4 mph 21.9 mph N/A   Overcast
11:55 AM 41.0 °F 34.7 °F 32.0 °F 70% 29.89 in 10.0 mi West 10.4 mph 17.3 mph N/A   Overcast
12:15 PM 41.0 °F 33.5 °F 32.0 °F 70% 29.89 in 10.0 mi WNW 13.8 mph 19.6 mph N/A   Overcast
12:35 PM 41.0 °F 34.3 °F 32.0 °F 70% 29.89 in 10.0 mi West 11.5 mph 23.0 mph N/A   Overcast
12:55 PM 42.8 °F 34.3 °F 32.0 °F 66% 29.90 in 10.0 mi WNW 19.6 mph 23.0 mph N/A   Overcast
1:15 PM 42.8 °F 35.1 °F 32.0 °F 66% 29.90 in 10.0 mi West 16.1 mph 21.9 mph N/A   Overcast
1:35 PM 42.8 °F 34.8 °F 32.0 °F 66% 29.90 in 10.0 mi WNW 17.3 mph 24.2 mph N/A   Overcast
1:55 PM 42.8 °F 35.8 °F 32.0 °F 66% 29.92 in 10.0 mi WNW 13.8 mph - N/A   Overcast
2:15 PM 42.8 °F 35.4 °F 32.0 °F 66% 29.93 in 10.0 mi WNW 15.0 mph 21.9 mph N/A   Overcast
2:35 PM 42.8 °F 36.6 °F 32.0 °F 66% 29.94 in 10.0 mi WNW 11.5 mph - N/A   Overcast
2:55 PM 42.8 °F 36.2 °F 32.0 °F 66% 29.95 in 10.0 mi WNW 12.7 mph 19.6 mph N/A   Mostly Cloudy
3:15 PM 42.8 °F 36.2 °F 32.0 °F 66% 29.96 in 10.0 mi WNW 12.7 mph - N/A   Scattered Clouds
3:35 PM 42.8 °F 37.0 °F 32.0 °F 66% 29.98 in 10.0 mi West 10.4 mph 18.4 mph N/A   Scattered Clouds
3:55 PM 42.8 °F 37.5 °F 32.0 °F 66% 29.99 in 10.0 mi WNW 9.2 mph - N/A   Overcast
4:15 PM 42.8 °F 37.5 °F 32.0 °F 66% 30.00 in 10.0 mi WNW 9.2 mph - N/A   Mostly Cloudy
4:35 PM 39.2 °F 32.5 °F 32.0 °F 75% 30.00 in 10.0 mi NW 10.4 mph - N/A   Scattered Clouds
4:55 PM 39.2 °F 33.0 °F 32.0 °F 75% 30.01 in 10.0 mi WNW 9.2 mph - N/A   Mostly Cloudy
5:15 PM 37.4 °F 32.8 °F 32.0 °F 81% 30.02 in 10.0 mi West 5.8 mph - N/A   Mostly Cloudy
5:35 PM 37.4 °F 32.8 °F 32.0 °F 81% 30.03 in 10.0 mi WNW 5.8 mph - N/A   Scattered Clouds
5:55 PM 37.4 °F 33.8 °F 32.0 °F 81% 30.04 in 10.0 mi West 4.6 mph - N/A   Clear
6:15 PM 35.6 °F 30.7 °F 30.2 °F 81% 30.05 in 10.0 mi WNW 5.8 mph - N/A   Clear
6:35 PM 35.6 °F 32.8 °F 32.0 °F 87% 30.05 in 10.0 mi West 3.5 mph - N/A   Clear
6:55 PM 35.6 °F 30.7 °F 30.2 °F 81% 30.06 in 10.0 mi WNW 5.8 mph - N/A   Clear
7:15 PM 35.6 °F 31.7 °F 30.2 °F 81% 30.07 in 10.0 mi West 4.6 mph - N/A   Clear
7:35 PM 35.6 °F - 30.2 °F 81% 30.07 in 10.0 mi Calm Calm - N/A   Clear
7:55 PM 35.6 °F 32.8 °F 30.2 °F 81% 30.07 in 10.0 mi West 3.5 mph - N/A   Clear
8:15 PM 35.6 °F 32.8 °F 30.2 °F 81% 30.08 in 10.0 mi SW 3.5 mph - N/A   Clear
8:35 PM 37.4 °F 34.9 °F 30.2 °F 75% 30.08 in 10.0 mi SW 3.5 mph - N/A   Clear
8:55 PM 37.4 °F - 30.2 °F 75% 30.09 in 10.0 mi Calm Calm - N/A   Clear
9:15 PM 33.8 °F 30.8 °F 30.2 °F 87% 30.09 in 10.0 mi WNW 3.5 mph - N/A   Clear
9:35 PM 33.8 °F 30.8 °F 30.2 °F 87% 30.09 in 10.0 mi WNW 3.5 mph - N/A   Clear
9:55 PM 32.0 °F - 30.2 °F 93% 30.09 in 10.0 mi Calm Calm - N/A   Clear
10:15 PM 33.8 °F 30.8 °F 30.2 °F 87% 30.10 in 10.0 mi SSW 3.5 mph - N/A   Clear
10:35 PM 32.0 °F - 30.2 °F 93% 30.10 in 10.0 mi Calm Calm - N/A   Clear
10:55 PM 32.0 °F - 30.2 °F 93% 30.10 in 8.0 mi Calm Calm - N/A   Clear
11:15 PM 32.0 °F 27.5 °F 32.0 °F 100% 30.11 in 10.0 mi SSW 4.6 mph - N/A   Clear
11:35 PM 33.8 °F 29.6 °F 32.0 °F 93% 30.11 in 10.0 mi SSW 4.6 mph - N/A   Clear
11:55 PM 33.8 °F 30.8 °F 30.2 °F 87% 30.12 in 10.0 mi SW 3.5 mph - N/A   Clear